Time;durP1;ratioP1;P1;durP2;ratioP2;P2;SDS_P1;SDS_P2;PMS_P1;PMS_P2;Temp;Humidity;BMP_temperature;BMP_pressure;BME280_temperature;BME280_humidity;BME280_pressure;Samples;Min_cycle;Max_cycle;Signal;HPM_P1;HPM_P2
2023/08/04 00:00:09;;;;;;;13.32;9.82;;;15.30;88.20;;;;;;4948470;28;20027;-76
2023/08/04 00:02:35;;;;;;;20.05;10.20;;;15.30;88.20;;;;;;4951443;29;20464;-75
2023/08/04 00:05:01;;;;;;;15.95;10.77;;;15.30;88.20;;;;;;4949017;28;20062;-73
2023/08/04 00:07:27;;;;;;;13.93;9.75;;;15.30;88.20;;;;;;4950374;28;20452;-78
2023/08/04 00:09:52;;;;;;;14.45;10.13;;;15.30;88.20;;;;;;4949508;29;20094;-78
2023/08/04 00:12:18;;;;;;;15.60;10.48;;;15.30;88.20;;;;;;4945941;28;20031;-76
2023/08/04 00:14:46;;;;;;;17.63;10.18;;;15.30;88.30;;;;;;4950019;28;20031;-74
2023/08/04 00:17:12;;;;;;;15.27;10.23;;;15.30;88.30;;;;;;4947552;28;20050;-72
2023/08/04 00:19:39;;;;;;;13.73;10.75;;;15.30;88.20;;;;;;4949281;29;20039;-73
2023/08/04 00:22:04;;;;;;;14.77;9.60;;;15.30;88.30;;;;;;4945656;28;20051;-72
2023/08/04 00:24:30;;;;;;;14.52;10.02;;;15.30;88.30;;;;;;4948579;29;20027;-72
2023/08/04 00:26:55;;;;;;;13.88;9.55;;;15.30;88.40;;;;;;4948987;28;20027;-76
2023/08/04 00:29:21;;;;;;;13.30;10.52;;;15.30;88.50;;;;;;4950068;29;20119;-72
2023/08/04 00:31:47;;;;;;;13.80;10.75;;;15.40;88.40;;;;;;4950005;28;20031;-74
2023/08/04 00:34:12;;;;;;;16.08;11.70;;;15.30;88.40;;;;;;4950783;28;20067;-73
2023/08/04 00:36:38;;;;;;;17.95;11.65;;;15.30;88.50;;;;;;4948649;28;20040;-78
2023/08/04 00:39:04;;;;;;;18.23;12.32;;;15.30;88.40;;;;;;4948979;29;20098;-74
2023/08/04 00:41:30;;;;;;;15.35;10.68;;;15.30;88.40;;;;;;4946367;28;20051;-73
2023/08/04 00:43:56;;;;;;;15.13;10.02;;;15.20;88.40;;;;;;4956119;28;20063;-75
2023/08/04 00:46:23;;;;;;;15.02;9.85;;;15.20;88.50;;;;;;4943410;28;20059;-73
2023/08/04 00:48:48;;;;;;;16.08;11.02;;;15.30;88.60;;;;;;4949314;29;20025;-73
2023/08/04 00:51:14;;;;;;;19.48;10.38;;;15.30;88.70;;;;;;4947151;28;20483;-74
2023/08/04 00:53:41;;;;;;;13.00;9.90;;;15.30;88.70;;;;;;4949487;28;20027;-72
2023/08/04 00:56:06;;;;;;;15.35;10.68;;;15.30;88.60;;;;;;4948819;28;20082;-74
2023/08/04 00:58:35;;;;;;;13.73;10.25;;;15.30;88.70;;;;;;4942932;29;20481;-74
2023/08/04 01:01:01;;;;;;;15.55;10.63;;;15.30;88.70;;;;;;4948425;28;20035;-81
2023/08/04 01:03:27;;;;;;;13.32;10.63;;;15.30;88.70;;;;;;4946838;29;20110;-73
2023/08/04 01:06:17;;;;;;;17.67;11.23;;;15.30;88.80;;;;;;4945725;28;20031;-73
2023/08/04 01:08:55;;;;;;;14.77;10.27;;;15.30;88.80;;;;;;4947604;28;20050;-77
2023/08/04 01:11:30;;;;;;;13.98;10.80;;;15.30;88.80;;;;;;4946385;28;20043;-75
2023/08/04 01:13:56;;;;;;;15.77;10.73;;;15.30;88.90;;;;;;4949279;28;20117;-76
2023/08/04 01:16:22;;;;;;;14.73;10.95;;;15.30;88.90;;;;;;4946003;28;20110;-78
2023/08/04 01:18:47;;;;;;;18.77;12.73;;;15.40;89.00;;;;;;4948614;28;20134;-73
2023/08/04 01:21:13;;;;;;;16.75;12.05;;;15.40;89.00;;;;;;4947068;28;20031;-79
2023/08/04 01:23:39;;;;;;;17.02;12.93;;;15.40;88.90;;;;;;4947598;28;20035;-78
2023/08/04 01:26:06;;;;;;;17.20;11.55;;;15.30;88.90;;;;;;4949310;28;20150;-75
2023/08/04 01:28:33;;;;;;;21.30;13.13;;;15.30;89.00;;;;;;4946867;28;20106;-74
2023/08/04 01:31:00;;;;;;;21.83;15.20;;;15.40;89.10;;;;;;4945471;28;20055;-72
2023/08/04 01:33:28;;;;;;;17.42;14.40;;;15.20;89.40;;;;;;4947894;29;20456;-73
2023/08/04 01:35:53;;;;;;;19.35;14.88;;;15.30;89.50;;;;;;4957235;28;20050;-74
2023/08/04 01:38:19;;;;;;;19.13;14.77;;;15.30;89.70;;;;;;4968222;28;20031;-77
2023/08/04 01:40:45;;;;;;;17.95;13.23;;;15.30;89.70;;;;;;4968232;28;20074;-73
2023/08/04 01:43:10;;;;;;;19.30;14.90;;;15.40;89.80;;;;;;4966061;28;20031;-76
2023/08/04 01:45:36;;;;;;;21.55;15.45;;;15.40;89.90;;;;;;4967138;28;20050;-81
2023/08/04 01:48:02;;;;;;;19.52;14.75;;;15.50;89.90;;;;;;4964425;28;20110;-77
2023/08/04 01:50:28;;;;;;;20.58;16.13;;;15.50;90.00;;;;;;4965744;28;20537;-74
2023/08/04 01:52:54;;;;;;;19.42;15.80;;;15.50;90.10;;;;;;4964969;28;20575;-72
2023/08/04 01:55:20;;;;;;;18.38;13.55;;;15.50;90.00;;;;;;4966558;28;20113;-73
2023/08/04 01:57:45;;;;;;;17.25;14.30;;;15.50;90.10;;;;;;4966318;28;20041;-73
2023/08/04 02:00:13;;;;;;;15.30;13.70;;;15.40;90.20;;;;;;4965744;28;20030;-77
2023/08/04 02:02:39;;;;;;;20.67;14.70;;;15.50;90.30;;;;;;4963720;28;20467;-73
2023/08/04 02:05:05;;;;;;;21.30;15.68;;;15.50;90.50;;;;;;4962331;28;20038;-75
2023/08/04 02:07:32;;;;;;;19.17;14.70;;;15.50;90.50;;;;;;4962986;28;20066;-73
2023/08/04 02:09:58;;;;;;;17.58;14.65;;;15.50;90.60;;;;;;4964257;28;20106;-73
2023/08/04 02:12:23;;;;;;;17.38;14.00;;;15.50;90.70;;;;;;4954034;28;20558;-73
2023/08/04 02:14:49;;;;;;;19.13;15.50;;;15.50;90.70;;;;;;4952367;28;20035;-73
2023/08/04 02:17:16;;;;;;;17.52;13.70;;;15.50;90.80;;;;;;4963397;28;20046;-75
2023/08/04 02:19:41;;;;;;;17.23;14.10;;;15.50;90.80;;;;;;4964024;28;20042;-73
2023/08/04 02:22:07;;;;;;;16.48;13.20;;;15.50;90.80;;;;;;4958268;28;20469;-81
2023/08/04 02:24:33;;;;;;;21.02;15.10;;;15.50;90.80;;;;;;4951381;28;20704;-74
2023/08/04 02:26:58;;;;;;;19.42;14.43;;;15.50;90.90;;;;;;4961954;28;20066;-75
2023/08/04 02:29:24;;;;;;;18.50;15.02;;;15.40;90.90;;;;;;4965817;28;20544;-73
2023/08/04 02:31:50;;;;;;;20.35;14.75;;;15.40;91.00;;;;;;4963016;28;20041;-77
2023/08/04 02:34:16;;;;;;;20.77;14.82;;;15.40;91.00;;;;;;4964811;28;20109;-76
2023/08/04 02:36:42;;;;;;;17.17;14.55;;;15.30;91.00;;;;;;4972708;28;20126;-74
2023/08/04 02:39:08;;;;;;;16.25;13.25;;;15.30;91.10;;;;;;4964186;28;20524;-74
2023/08/04 02:41:34;;;;;;;18.40;13.95;;;15.20;91.10;;;;;;4965126;28;20479;-75
2023/08/04 02:44:02;;;;;;;20.30;15.23;;;15.20;91.20;;;;;;4966257;28;20534;-73
2023/08/04 02:46:28;;;;;;;17.83;13.88;;;15.20;91.20;;;;;;4963975;28;20054;-74
2023/08/04 02:48:55;;;;;;;16.75;13.30;;;15.20;91.30;;;;;;4964761;28;20459;-77
2023/08/04 02:51:21;;;;;;;19.15;14.77;;;15.20;91.30;;;;;;4963264;28;20042;-74
2023/08/04 02:53:48;;;;;;;14.90;13.13;;;15.20;91.30;;;;;;4965737;28;20497;-74
2023/08/04 02:56:16;;;;;;;15.70;13.20;;;15.20;91.30;;;;;;4961618;28;20395;-74
2023/08/04 02:58:43;;;;;;;15.65;12.80;;;15.10;91.20;;;;;;4962603;28;20035;-80
2023/08/04 03:01:09;;;;;;;15.73;13.35;;;15.10;91.10;;;;;;4964839;28;20034;-74
2023/08/04 03:03:35;;;;;;;21.45;14.93;;;15.10;91.20;;;;;;4965685;28;20035;-73
2023/08/04 03:06:01;;;;;;;17.92;13.23;;;15.10;91.20;;;;;;4965028;28;20361;-75
2023/08/04 03:08:28;;;;;;;17.92;13.38;;;15.20;91.20;;;;;;4960367;28;20101;-76
2023/08/04 03:10:54;;;;;;;17.77;14.05;;;15.20;91.20;;;;;;4962224;28;20660;-72
2023/08/04 03:13:20;;;;;;;17.65;15.20;;;15.20;91.20;;;;;;4949402;28;20507;-71
2023/08/04 03:15:46;;;;;;;16.63;14.52;;;15.20;91.20;;;;;;4959544;28;20122;-76
2023/08/04 03:18:12;;;;;;;18.15;14.82;;;15.20;91.30;;;;;;4953836;28;20071;-73
2023/08/04 03:20:40;;;;;;;16.40;13.18;;;15.30;91.30;;;;;;4954760;28;20039;-71
2023/08/04 03:23:06;;;;;;;17.02;13.70;;;15.20;91.30;;;;;;4957083;28;20031;-75
2023/08/04 03:25:33;;;;;;;16.02;13.70;;;15.20;91.30;;;;;;4955315;28;20056;-83
2023/08/04 03:27:59;;;;;;;17.88;13.73;;;15.20;91.30;;;;;;4962887;28;20228;-74
2023/08/04 03:30:25;;;;;;;18.40;14.13;;;15.20;91.40;;;;;;4958894;28;20457;-73
2023/08/04 03:32:50;;;;;;;20.63;15.85;;;15.20;91.30;;;;;;4957671;28;20031;-79
2023/08/04 03:35:16;;;;;;;16.60;14.32;;;15.30;91.40;;;;;;4950657;28;20479;-72
2023/08/04 03:37:42;;;;;;;17.58;13.30;;;15.20;91.40;;;;;;4954349;28;20468;-73
2023/08/04 03:40:08;;;;;;;17.10;14.57;;;15.20;91.40;;;;;;4960429;28;20416;-74
2023/08/04 03:42:36;;;;;;;16.92;13.95;;;15.20;91.40;;;;;;4978217;28;20150;-75
2023/08/04 03:45:02;;;;;;;17.40;14.30;;;15.30;91.50;;;;;;4975028;28;20023;-76
2023/08/04 03:47:29;;;;;;;18.60;15.10;;;15.20;91.50;;;;;;4979235;28;20039;-74
2023/08/04 03:49:55;;;;;;;19.65;15.88;;;15.30;91.50;;;;;;4977554;28;20475;-73
2023/08/04 03:52:21;;;;;;;17.83;14.38;;;15.30;91.50;;;;;;4958864;28;20122;-75
2023/08/04 03:54:47;;;;;;;17.40;14.57;;;15.20;91.50;;;;;;4945441;28;20473;-75
2023/08/04 03:57:12;;;;;;;21.15;16.58;;;15.30;91.60;;;;;;4952208;28;20044;-72
2023/08/04 03:59:38;;;;;;;18.25;14.65;;;15.20;91.50;;;;;;4955753;28;20758;-73
2023/08/04 04:02:04;;;;;;;18.90;16.02;;;15.30;91.60;;;;;;4955779;28;20043;-72
2023/08/04 04:04:31;;;;;;;18.65;15.02;;;15.30;91.60;;;;;;4952627;28;20036;-72
2023/08/04 04:06:56;;;;;;;18.85;16.00;;;15.30;91.60;;;;;;4971431;28;20479;-73
2023/08/04 04:09:22;;;;;;;19.23;15.77;;;15.30;91.60;;;;;;4977488;28;20022;-74
2023/08/04 04:11:47;;;;;;;16.83;13.77;;;15.30;91.60;;;;;;4972003;28;20523;-75
2023/08/04 04:14:13;;;;;;;19.58;16.33;;;15.30;91.60;;;;;;4971657;28;20027;-78
2023/08/04 04:16:39;;;;;;;18.20;15.88;;;15.30;91.60;;;;;;4957023;28;20457;-74
2023/08/04 04:19:05;;;;;;;18.60;16.10;;;15.40;91.50;;;;;;4948245;29;20341;-72
2023/08/04 04:21:30;;;;;;;19.25;16.48;;;15.30;91.50;;;;;;4950745;28;20472;-79
2023/08/04 04:23:56;;;;;;;20.88;16.60;;;15.30;91.50;;;;;;4948403;28;20448;-71
2023/08/04 04:26:23;;;;;;;18.45;15.80;;;15.30;91.50;;;;;;4950533;28;20760;-77
2023/08/04 04:28:49;;;;;;;20.83;16.20;;;15.40;91.60;;;;;;4944274;29;20538;-72
2023/08/04 04:31:14;;;;;;;19.75;15.82;;;15.40;91.50;;;;;;4949972;28;20039;-73
2023/08/04 04:33:40;;;;;;;20.00;17.23;;;15.40;91.50;;;;;;4949862;29;20102;-77
2023/08/04 04:36:06;;;;;;;19.45;17.05;;;15.40;91.50;;;;;;4948388;28;20055;-78
2023/08/04 04:38:31;;;;;;;18.75;15.68;;;15.40;91.50;;;;;;4948989;28;20066;-75
2023/08/04 04:40:58;;;;;;;21.73;17.65;;;15.40;91.50;;;;;;4949639;28;20110;-74
2023/08/04 04:43:24;;;;;;;22.02;17.48;;;15.50;91.60;;;;;;4947398;28;20503;-73
2023/08/04 04:45:51;;;;;;;19.85;16.83;;;15.50;91.50;;;;;;4944956;28;20043;-74
2023/08/04 04:48:18;;;;;;;21.40;18.08;;;15.50;91.40;;;;;;4946460;29;20035;-75
2023/08/04 04:50:44;;;;;;;20.83;17.35;;;15.60;91.40;;;;;;4947125;28;20023;-73
2023/08/04 04:53:10;;;;;;;24.95;19.17;;;15.60;91.40;;;;;;4952418;28;20042;-75
2023/08/04 04:55:35;;;;;;;20.55;18.00;;;15.60;91.40;;;;;;4949281;28;20125;-77
2023/08/04 04:58:02;;;;;;;22.73;19.73;;;15.60;91.30;;;;;;4948066;28;20106;-72
2023/08/04 05:00:27;;;;;;;22.83;18.50;;;15.60;91.20;;;;;;4950062;28;20429;-75
2023/08/04 05:02:53;;;;;;;20.05;17.83;;;15.70;91.20;;;;;;4950773;29;20030;-74
2023/08/04 05:05:19;;;;;;;19.65;17.55;;;15.70;91.20;;;;;;4947263;28;20444;-72
2023/08/04 05:07:44;;;;;;;22.08;18.35;;;15.70;91.20;;;;;;4948341;28;20031;-74
2023/08/04 05:10:10;;;;;;;23.00;18.48;;;15.80;91.10;;;;;;4949905;28;20031;-76
2023/08/04 05:12:37;;;;;;;23.20;19.25;;;15.80;91.20;;;;;;4947821;29;20051;-74
2023/08/04 05:15:03;;;;;;;20.00;17.65;;;15.90;91.10;;;;;;4946978;28;20129;-76
2023/08/04 05:17:29;;;;;;;22.83;18.45;;;15.90;91.10;;;;;;4979756;28;20476;-75
2023/08/04 05:19:54;;;;;;;24.67;20.00;;;16.00;91.00;;;;;;4945911;28;20027;-80
2023/08/04 05:22:20;;;;;;;22.85;19.10;;;16.00;90.80;;;;;;4943575;28;20110;-76
2023/08/04 05:24:46;;;;;;;22.98;18.58;;;16.10;90.80;;;;;;4949781;28;20063;-79
2023/08/04 05:27:11;;;;;;;21.05;18.60;;;16.10;90.40;;;;;;4949856;28;20050;-73
2023/08/04 05:29:37;;;;;;;17.55;15.23;;;16.10;90.20;;;;;;4945354;28;20104;-77
2023/08/04 05:32:03;;;;;;;19.55;17.25;;;16.10;90.30;;;;;;4949299;28;20038;-73
2023/08/04 05:34:29;;;;;;;20.63;17.10;;;16.20;90.10;;;;;;4948768;28;20031;-74
2023/08/04 05:36:54;;;;;;;20.73;17.35;;;16.20;90.10;;;;;;4944588;28;20815;-74
2023/08/04 05:39:20;;;;;;;20.80;17.23;;;16.20;90.10;;;;;;4947060;29;20487;-73
2023/08/04 05:41:47;;;;;;;17.70;15.85;;;16.20;90.10;;;;;;4945660;28;20054;-75
2023/08/04 05:44:13;;;;;;;17.92;15.45;;;16.20;90.20;;;;;;4943839;28;20497;-74
2023/08/04 05:46:39;;;;;;;17.85;16.00;;;16.20;90.00;;;;;;4945781;28;20374;-74
2023/08/04 05:49:05;;;;;;;20.52;18.08;;;16.30;89.90;;;;;;4947160;28;20523;-75
2023/08/04 05:51:31;;;;;;;20.15;16.45;;;16.30;89.90;;;;;;4945322;28;20086;-74
2023/08/04 05:53:57;;;;;;;20.70;18.48;;;16.30;89.90;;;;;;4944596;28;20488;-73
2023/08/04 05:56:23;;;;;;;20.70;17.08;;;16.30;89.80;;;;;;4945690;28;20027;-73
2023/08/04 05:58:49;;;;;;;21.50;16.67;;;16.40;89.80;;;;;;4944886;29;20024;-74
2023/08/04 06:01:16;;;;;;;22.83;17.13;;;16.50;89.70;;;;;;4947020;28;20039;-74
2023/08/04 06:03:41;;;;;;;21.38;15.85;;;16.50;89.60;;;;;;4945158;28;20400;-73
2023/08/04 06:06:07;;;;;;;18.98;16.63;;;16.60;89.60;;;;;;4946704;28;20058;-74
2023/08/04 06:08:33;;;;;;;20.17;15.23;;;16.60;89.60;;;;;;4945164;28;20356;-73
2023/08/04 06:10:59;;;;;;;21.15;16.60;;;16.80;89.50;;;;;;4946489;28;20047;-77
2023/08/04 06:13:25;;;;;;;20.08;16.83;;;16.80;89.10;;;;;;4940448;28;20061;-76
2023/08/04 06:15:50;;;;;;;18.83;15.45;;;16.80;88.60;;;;;;4945851;28;20031;-75
2023/08/04 06:18:17;;;;;;;20.88;15.10;;;16.90;88.80;;;;;;4944815;29;20090;-74
2023/08/04 06:20:44;;;;;;;16.95;14.88;;;16.90;88.60;;;;;;4945733;28;20546;-74
2023/08/04 06:23:11;;;;;;;17.63;14.23;;;17.00;88.60;;;;;;4942439;28;20030;-75
2023/08/04 06:25:36;;;;;;;16.27;14.10;;;17.10;88.50;;;;;;4944560;28;20050;-74
2023/08/04 06:28:02;;;;;;;18.30;14.13;;;17.10;88.40;;;;;;4943196;29;20126;-75
2023/08/04 06:30:29;;;;;;;15.63;13.38;;;17.20;87.70;;;;;;4943387;28;20023;-75
2023/08/04 06:32:54;;;;;;;14.93;12.35;;;17.30;87.70;;;;;;4943333;28;20924;-75
2023/08/04 06:35:20;;;;;;;15.52;11.95;;;17.30;87.80;;;;;;4941117;28;20179;-74
2023/08/04 06:37:46;;;;;;;16.38;12.57;;;17.40;87.80;;;;;;4941682;28;20031;-74
2023/08/04 06:40:11;;;;;;;15.73;10.68;;;17.60;87.40;;;;;;4940482;28;20031;-75
2023/08/04 06:42:37;;;;;;;18.42;10.75;;;17.60;87.20;;;;;;4941300;28;20174;-75
2023/08/04 06:45:04;;;;;;;16.00;10.43;;;17.80;86.80;;;;;;4943532;28;20055;-74
2023/08/04 06:47:29;;;;;;;18.02;9.75;;;18.00;86.40;;;;;;4943418;28;20038;-75
2023/08/04 06:49:55;;;;;;;13.45;8.90;;;18.00;85.60;;;;;;4945245;28;20031;-75
2023/08/04 06:52:20;;;;;;;14.27;9.40;;;18.10;85.70;;;;;;4960839;28;20503;-75
2023/08/04 06:54:47;;;;;;;14.68;9.05;;;18.20;85.20;;;;;;4969421;28;20035;-77
2023/08/04 06:57:12;;;;;;;15.45;8.38;;;18.10;84.80;;;;;;4962851;28;20054;-75
2023/08/04 06:59:38;;;;;;;13.32;7.30;;;18.20;84.70;;;;;;4964993;28;20029;-76
2023/08/04 07:02:04;;;;;;;12.57;7.60;;;18.20;84.70;;;;;;4966810;28;20035;-75
2023/08/04 07:04:29;;;;;;;12.98;8.25;;;18.30;84.20;;;;;;4967022;28;20113;-75
2023/08/04 07:06:56;;;;;;;13.15;7.13;;;18.30;84.20;;;;;;4953121;28;20038;-75
2023/08/04 07:09:22;;;;;;;13.00;7.90;;;18.40;84.00;;;;;;4948140;28;20035;-75
2023/08/04 07:11:47;;;;;;;15.52;8.18;;;18.50;84.00;;;;;;4949325;28;20090;-75
2023/08/04 07:14:13;;;;;;;14.95;7.88;;;18.60;84.00;;;;;;4962751;28;20134;-75
2023/08/04 07:16:39;;;;;;;13.35;7.22;;;18.70;83.40;;;;;;4943743;28;20369;-75
2023/08/04 07:19:04;;;;;;;13.43;7.45;;;18.70;83.10;;;;;;4944233;28;20500;-74
2023/08/04 07:21:30;;;;;;;13.20;7.00;;;18.70;83.50;;;;;;4955685;28;20038;-74
2023/08/04 07:23:56;;;;;;;14.57;7.28;;;18.70;83.10;;;;;;4966813;28;20030;-74
2023/08/04 07:26:22;;;;;;;12.55;7.53;;;18.60;83.20;;;;;;4963869;28;20580;-74
2023/08/04 07:28:47;;;;;;;12.57;7.15;;;18.60;83.50;;;;;;4965338;28;20090;-73
2023/08/04 07:31:13;;;;;;;11.50;7.63;;;19.00;83.60;;;;;;4962984;28;21135;-75
2023/08/04 07:33:39;;;;;;;12.57;7.72;;;19.10;83.30;;;;;;4964366;28;20546;-73
2023/08/04 07:36:05;;;;;;;14.68;7.55;;;19.20;82.40;;;;;;4965409;28;20035;-75
2023/08/04 07:38:31;;;;;;;11.77;6.80;;;19.40;82.50;;;;;;4964305;28;20035;-78
2023/08/04 07:40:57;;;;;;;11.05;6.47;;;19.50;81.60;;;;;;4961521;28;20517;-78
2023/08/04 07:43:24;;;;;;;12.90;5.85;;;19.60;80.90;;;;;;4953170;28;20035;-78
2023/08/04 07:45:50;;;;;;;11.98;6.60;;;19.80;80.20;;;;;;4955484;28;20651;-77
2023/08/04 07:48:17;;;;;;;10.40;6.05;;;19.90;78.40;;;;;;4938576;28;20054;-78
2023/08/04 07:50:45;;;;;;;9.80;5.95;;;20.00;78.70;;;;;;4956949;28;20039;-78
2023/08/04 07:53:10;;;;;;;11.52;5.90;;;20.10;78.80;;;;;;4965271;28;20027;-77
2023/08/04 07:55:36;;;;;;;12.05;6.63;;;20.00;78.80;;;;;;4964180;28;20038;-74
2023/08/04 07:58:06;;;;;;;10.77;5.45;;;20.00;78.40;;;;;;4967760;28;20538;-74
2023/08/04 08:00:32;;;;;;;8.32;4.85;;;20.00;79.00;;;;;;4964495;28;20046;-74
2023/08/04 08:02:57;;;;;;;12.80;4.82;;;19.70;76.80;;;;;;4968030;28;20027;-75
2023/08/04 08:05:23;;;;;;;11.00;5.35;;;19.60;76.90;;;;;;4964355;28;20044;-74
2023/08/04 08:07:50;;;;;;;10.63;5.43;;;19.40;79.20;;;;;;4966370;28;20050;-75
2023/08/04 08:10:17;;;;;;;10.93;6.07;;;19.40;79.30;;;;;;4949109;28;20039;-75
2023/08/04 08:12:43;;;;;;;9.27;4.93;;;19.50;79.30;;;;;;4943762;28;20031;-75
2023/08/04 08:15:09;;;;;;;11.45;5.22;;;19.40;78.30;;;;;;4941955;28;20146;-74
2023/08/04 08:17:35;;;;;;;8.27;4.47;;;19.50;77.80;;;;;;4963279;28;20039;-74
2023/08/04 08:20:00;;;;;;;10.13;4.10;;;19.60;77.80;;;;;;4964646;28;20034;-74
2023/08/04 08:22:26;;;;;;;8.10;3.80;;;19.70;76.80;;;;;;4965420;28;20530;-74
2023/08/04 08:24:56;;;;;;;8.75;3.67;;;19.60;75.90;;;;;;4963388;28;20042;-74
2023/08/04 08:27:23;;;;;;;7.65;3.35;;;19.80;76.90;;;;;;4965340;28;20038;-73
2023/08/04 08:29:55;;;;;;;6.57;2.65;;;19.90;75.10;;;;;;4978738;28;20130;-74
2023/08/04 08:32:21;;;;;;;6.13;3.00;;;19.80;73.70;;;;;;4963186;28;20062;-73
2023/08/04 08:34:47;;;;;;;6.93;3.50;;;19.60;72.70;;;;;;4965254;28;20114;-75
2023/08/04 08:37:13;;;;;;;7.60;3.50;;;19.70;73.50;;;;;;4963950;28;20053;-76
2023/08/04 08:39:39;;;;;;;7.93;3.70;;;19.80;74.50;;;;;;4963118;28;20487;-76
2023/08/04 08:42:05;;;;;;;8.00;3.67;;;20.10;74.20;;;;;;4980413;28;20094;-75
2023/08/04 08:44:30;;;;;;;9.35;4.10;;;20.20;74.50;;;;;;4958788;28;20041;-74
2023/08/04 08:46:56;;;;;;;8.50;4.38;;;20.10;74.50;;;;;;4962909;28;20498;-76
2023/08/04 08:49:27;;;;;;;8.52;4.40;;;19.90;75.20;;;;;;4963919;28;20033;-75
2023/08/04 08:51:54;;;;;;;11.32;5.38;;;20.00;76.20;;;;;;4967444;28;20138;-74
2023/08/04 08:54:20;;;;;;;9.52;5.18;;;19.80;76.50;;;;;;4967574;28;20060;-74
2023/08/04 08:56:49;;;;;;;9.52;4.85;;;19.70;77.10;;;;;;4964589;28;20042;-74
2023/08/04 08:59:14;;;;;;;8.20;4.25;;;19.60;76.50;;;;;;4960092;28;20050;-74
2023/08/04 09:01:41;;;;;;;8.88;4.43;;;19.50;76.70;;;;;;4965433;28;20074;-74
2023/08/04 09:04:07;;;;;;;9.43;4.22;;;19.50;76.00;;;;;;4965890;28;20031;-75
2023/08/04 09:06:32;;;;;;;6.88;3.47;;;19.80;76.50;;;;;;4965601;28;20045;-75
2023/08/04 09:09:02;;;;;;;8.65;3.53;;;20.10;75.20;;;;;;4965312;28;20522;-75
2023/08/04 09:11:31;;;;;;;8.73;3.45;;;20.30;73.30;;;;;;4959166;28;20045;-75
2023/08/04 09:13:59;;;;;;;10.98;3.88;;;20.60;73.20;;;;;;4964204;28;20436;-74
2023/08/04 09:16:39;;;;;;;9.10;3.67;;;20.90;71.30;;;;;;4960989;28;20467;-75
2023/08/04 09:19:06;;;;;;;7.40;3.15;;;20.90;71.10;;;;;;4962731;28;20027;-75
2023/08/04 09:21:36;;;;;;;5.50;3.00;;;21.30;70.60;;;;;;4961986;28;20042;-76
2023/08/04 09:24:03;;;;;;;8.00;3.60;;;21.50;68.80;;;;;;4970820;28;20150;-75
2023/08/04 09:26:43;;;;;;;7.72;3.40;;;21.60;68.80;;;;;;4956427;28;20388;-74
2023/08/04 09:29:09;;;;;;;6.47;3.17;;;21.60;67.30;;;;;;4949177;28;20066;-75
2023/08/04 09:31:37;;;;;;;6.53;2.75;;;21.50;67.50;;;;;;4944944;28;20035;-75
2023/08/04 09:34:04;;;;;;;8.05;2.80;;;21.50;67.70;;;;;;4947091;28;20031;-75
2023/08/04 09:36:30;;;;;;;6.22;2.50;;;21.40;67.30;;;;;;4955608;28;20047;-73
2023/08/04 09:39:04;;;;;;;6.57;2.78;;;21.70;66.50;;;;;;4960276;28;20506;-73
2023/08/04 09:41:33;;;;;;;6.13;2.78;;;21.70;65.10;;;;;;4951321;28;20190;-74
2023/08/04 09:44:06;;;;;;;5.45;2.70;;;21.80;66.70;;;;;;4948154;28;20035;-73
2023/08/04 09:46:58;;;;;;;6.78;2.72;;;21.90;64.90;;;;;;4956438;28;20046;-74
2023/08/04 09:49:24;;;;;;;6.10;2.70;;;22.30;64.00;;;;;;4963348;28;20068;-73
2023/08/04 09:51:56;;;;;;;7.03;3.28;;;22.80;63.30;;;;;;4964719;28;20106;-74
2023/08/04 09:54:22;;;;;;;6.00;3.17;;;22.60;62.80;;;;;;4964526;28;20396;-75
2023/08/04 09:56:49;;;;;;;7.03;3.20;;;22.60;63.80;;;;;;4964902;28;20035;-74
2023/08/04 09:59:16;;;;;;;7.45;3.45;;;22.30;64.80;;;;;;4964158;28;20631;-74
2023/08/04 10:01:42;;;;;;;6.88;3.25;;;22.00;65.70;;;;;;4964009;28;20047;-75
2023/08/04 10:04:08;;;;;;;6.30;3.30;;;21.70;66.00;;;;;;4961985;28;20523;-79
2023/08/04 10:06:34;;;;;;;6.13;3.45;;;21.60;69.20;;;;;;4965111;28;20047;-75
2023/08/04 10:09:00;;;;;;;5.88;3.35;;;21.40;69.30;;;;;;4960469;28;20131;-74
2023/08/04 10:11:26;;;;;;;9.25;3.30;;;21.30;70.70;;;;;;4958254;28;20034;-75
2023/08/04 10:13:54;;;;;;;6.38;3.20;;;21.00;70.10;;;;;;4964340;28;20098;-75
2023/08/04 10:16:27;;;;;;;5.97;3.25;;;20.80;71.00;;;;;;4963040;28;20047;-76
2023/08/04 10:18:55;;;;;;;6.40;3.05;;;20.80;70.50;;;;;;4963937;28;20034;-75
2023/08/04 10:21:41;;;;;;;5.25;3.25;;;20.80;70.20;;;;;;4954564;28;20035;-75
2023/08/04 10:24:11;;;;;;;7.18;3.47;;;21.10;69.00;;;;;;4951115;28;20087;-76
2023/08/04 10:26:51;;;;;;;7.50;3.65;;;21.20;67.00;;;;;;4954390;28;20042;-76
2023/08/04 10:29:18;;;;;;;8.32;3.72;;;20.90;69.20;;;;;;4958483;28;20023;-76
2023/08/04 10:31:57;;;;;;;8.88;4.55;;;20.80;70.40;;;;;;4961064;28;20066;-75
2023/08/04 10:34:33;;;;;;;7.10;4.15;;;20.50;72.60;;;;;;4964966;28;20105;-76
2023/08/04 10:37:09;;;;;;;8.38;4.38;;;20.30;73.90;;;;;;4942738;28;20563;-75
2023/08/04 10:39:36;;;;;;;5.60;3.78;;;20.30;74.30;;;;;;4935598;28;20031;-75
2023/08/04 10:42:06;;;;;;;7.07;3.53;;;20.10;74.60;;;;;;4939424;28;20059;-74
2023/08/04 10:44:47;;;;;;;7.15;3.95;;;19.80;74.50;;;;;;4939259;28;20037;-76
2023/08/04 10:47:13;;;;;;;6.88;4.15;;;19.90;76.10;;;;;;4936434;28;20169;-76
2023/08/04 10:49:40;;;;;;;8.93;4.65;;;19.80;75.50;;;;;;4944351;28;20037;-74
2023/08/04 10:52:06;;;;;;;7.30;4.75;;;20.00;75.70;;;;;;4946316;28;20065;-74
2023/08/04 10:54:31;;;;;;;9.23;5.00;;;20.00;77.50;;;;;;4943141;28;20429;-75
2023/08/04 10:56:57;;;;;;;8.13;4.32;;;20.10;76.00;;;;;;4941620;28;20024;-74
2023/08/04 10:59:23;;;;;;;8.35;4.50;;;20.10;74.70;;;;;;4938509;28;20729;-75
2023/08/04 11:01:49;;;;;;;8.50;5.22;;;20.20;75.00;;;;;;4936153;28;20122;-75
2023/08/04 11:04:18;;;;;;;10.32;5.68;;;20.50;75.40;;;;;;4935457;28;20519;-74
2023/08/04 11:06:48;;;;;;;9.77;4.85;;;20.90;73.40;;;;;;4934756;28;20047;-75
2023/08/04 11:09:13;;;;;;;10.38;4.80;;;21.10;72.10;;;;;;4937043;28;20371;-75
2023/08/04 11:11:40;;;;;;;9.43;4.63;;;21.20;71.60;;;;;;4940521;28;20027;-75
2023/08/04 11:14:08;;;;;;;9.05;4.35;;;21.60;70.30;;;;;;4937533;28;20034;-76
2023/08/04 11:16:36;;;;;;;7.10;3.70;;;22.20;69.80;;;;;;4939577;28;20392;-76
2023/08/04 11:19:08;;;;;;;8.43;3.85;;;22.40;70.70;;;;;;4939606;28;20027;-75
2023/08/04 11:21:34;;;;;;;5.70;3.72;;;22.30;66.50;;;;;;4940398;28;20098;-75
2023/08/04 11:23:59;;;;;;;5.38;3.05;;;22.50;67.90;;;;;;4940921;28;20043;-74
2023/08/04 11:26:28;;;;;;;7.43;3.65;;;22.60;63.60;;;;;;4939697;28;20050;-76
2023/08/04 11:28:59;;;;;;;7.10;3.63;;;22.90;65.30;;;;;;4938380;28;20480;-76
2023/08/04 11:31:26;;;;;;;6.15;3.38;;;23.10;64.10;;;;;;4939703;28;20094;-74
2023/08/04 11:33:52;;;;;;;7.68;3.90;;;23.20;62.30;;;;;;4942161;28;20582;-75
2023/08/04 11:36:18;;;;;;;9.80;3.55;;;22.90;64.60;;;;;;4943946;28;20373;-74
2023/08/04 11:38:43;;;;;;;6.65;3.45;;;22.60;65.20;;;;;;4942377;28;20057;-74
2023/08/04 11:41:11;;;;;;;7.05;3.63;;;22.20;66.10;;;;;;4944704;28;20054;-74
2023/08/04 11:43:36;;;;;;;6.70;3.50;;;22.10;67.10;;;;;;4968975;28;20143;-74
2023/08/04 11:46:09;;;;;;;6.65;3.78;;;22.00;67.40;;;;;;4941169;28;20400;-75
2023/08/04 11:48:35;;;;;;;5.30;3.65;;;22.10;66.80;;;;;;4942912;28;20066;-75
2023/08/04 11:51:01;;;;;;;6.53;4.13;;;22.10;66.00;;;;;;4936225;28;20069;-74
2023/08/04 11:53:27;;;;;;;7.13;3.78;;;21.90;64.90;;;;;;4945583;28;20460;-75
2023/08/04 11:55:58;;;;;;;6.63;4.07;;;21.80;66.10;;;;;;4939603;28;20082;-76
2023/08/04 11:58:39;;;;;;;6.22;3.95;;;21.70;66.80;;;;;;4943279;28;20034;-75
2023/08/04 12:01:23;;;;;;;7.88;4.07;;;21.70;66.90;;;;;;4944639;28;20634;-75
2023/08/04 12:03:50;;;;;;;6.22;4.00;;;21.60;65.50;;;;;;4943878;28;20027;-75
2023/08/04 12:06:23;;;;;;;7.93;4.15;;;21.50;66.40;;;;;;4940799;28;20400;-74
2023/08/04 12:08:55;;;;;;;8.63;4.10;;;21.40;68.30;;;;;;4945177;28;20027;-75
2023/08/04 12:11:25;;;;;;;6.97;4.10;;;21.10;68.50;;;;;;4958717;28;20063;-74
2023/08/04 12:13:51;;;;;;;7.18;3.92;;;20.80;68.60;;;;;;4965789;28;20022;-74
2023/08/04 12:16:17;;;;;;;8.20;4.45;;;20.50;69.10;;;;;;4961583;28;20034;-75
2023/08/04 12:18:44;;;;;;;7.75;4.90;;;20.60;71.20;;;;;;4949802;28;20031;-75
2023/08/04 12:21:14;;;;;;;8.65;4.78;;;20.60;71.70;;;;;;4957745;28;20042;-74
2023/08/04 12:23:49;;;;;;;8.50;4.60;;;20.80;72.10;;;;;;4962798;28;20399;-74
2023/08/04 12:26:15;;;;;;;9.77;4.93;;;20.80;71.90;;;;;;4953853;28;20102;-75
2023/08/04 12:28:40;;;;;;;9.00;5.30;;;20.80;71.40;;;;;;4962837;28;20039;-75
2023/08/04 12:31:06;;;;;;;7.25;4.60;;;20.80;71.20;;;;;;4963110;28;20063;-81
2023/08/04 12:33:32;;;;;;;7.85;4.97;;;20.70;71.40;;;;;;4962731;28;20041;-78